createdAt,value
2023-03-29T00:00:43.541Z,1.58
2023-03-29T00:05:49.026Z,1.64
2023-03-29T00:10:56.936Z,1.68
2023-03-29T00:16:04.809Z,1.51
2023-03-29T00:21:10.347Z,1.60
2023-03-29T00:26:15.607Z,1.82
2023-03-29T00:31:23.369Z,1.78
2023-03-29T00:36:30.766Z,1.73
2023-03-29T00:41:35.832Z,1.76
2023-03-29T00:46:43.766Z,1.77
2023-03-29T00:51:49.008Z,1.81
2023-03-29T00:56:55.956Z,1.69
2023-03-29T01:02:07.314Z,1.80
2023-03-29T01:07:22.053Z,1.72
2023-03-29T01:12:32.879Z,1.68
2023-03-29T01:17:40.839Z,1.58
2023-03-29T01:23:00.867Z,1.39
2023-03-29T01:28:11.635Z,1.20
2023-03-29T01:33:23.721Z,1.35
2023-03-29T01:38:34.640Z,1.28
2023-03-29T01:43:48.931Z,1.41
2023-03-29T01:49:00.860Z,1.57
2023-03-29T01:54:10.877Z,1.67
2023-03-29T01:59:22.941Z,1.69
2023-03-29T02:04:34.576Z,1.51
2023-03-29T02:09:47.440Z,1.22
2023-03-29T02:14:57.321Z,1.40
2023-03-29T02:20:14.917Z,1.51
2023-03-29T02:25:22.872Z,1.38
2023-03-29T02:30:41.093Z,1.72
2023-03-29T02:35:53.489Z,1.38
2023-03-29T02:41:01.590Z,1.32
2023-03-29T02:46:13.873Z,1.35
2023-03-29T02:51:23.295Z,1.45
2023-03-29T02:56:33.870Z,1.40
2023-03-29T03:01:43.047Z,1.58
2023-03-29T03:06:48.487Z,1.56
2023-03-29T03:11:57.853Z,1.76
2023-03-29T03:17:09.027Z,1.69
2023-03-29T03:22:15.473Z,1.57
2023-03-29T03:27:21.162Z,1.69
2023-03-29T03:32:29.835Z,1.56
2023-03-29T03:38:08.781Z,1.87
2023-03-29T03:43:16.651Z,2.05
2023-03-29T03:48:28.203Z,2.22
2023-03-29T03:53:52.682Z,2.31
2023-03-29T03:59:11.220Z,2.45
2023-03-29T04:04:37.124Z,2.46
2023-03-29T04:09:52.821Z,2.51
2023-03-29T04:15:23.894Z,2.48
2023-03-29T04:20:42.740Z,2.36
2023-03-29T04:25:51.114Z,2.07
2023-03-29T04:31:15.946Z,2.02
2023-03-29T04:36:44.468Z,1.95
2023-03-29T04:42:00.528Z,2.02
2023-03-29T04:47:08.304Z,2.00
2023-03-29T04:52:36.869Z,1.98
2023-03-29T04:57:46.406Z,2.27
2023-03-29T05:02:59.728Z,2.27
2023-03-29T05:08:17.413Z,2.29
2023-03-29T05:13:45.461Z,2.22
2023-03-29T05:18:51.931Z,2.11
2023-03-29T05:24:00.749Z,2.20
2023-03-29T05:29:26.853Z,2.42
2023-03-29T05:34:46.339Z,2.66
2023-03-29T05:40:06.081Z,2.53
2023-03-29T05:45:19.304Z,2.64
2023-03-29T05:50:30.367Z,2.86
2023-03-29T05:55:41.534Z,3.04
2023-03-29T06:00:53.747Z,2.97
2023-03-29T06:06:24.906Z,3.05
2023-03-29T06:11:33.061Z,3.05
2023-03-29T06:16:55.325Z,3.34
2023-03-29T06:22:00.885Z,3.40
2023-03-29T06:27:10.024Z,3.50
2023-03-29T06:32:16.200Z,3.72
2023-03-29T06:37:39.652Z,3.90
2023-03-29T06:43:03.989Z,3.89
2023-03-29T06:48:18.032Z,4.05
2023-03-29T06:53:23.619Z,4.27
2023-03-29T06:58:45.571Z,4.22
2023-03-29T07:04:11.503Z,4.37
2023-03-29T07:09:54.109Z,4.56
2023-03-29T07:15:20.912Z,4.47
2023-03-29T07:20:49.682Z,4.28
2023-03-29T07:25:55.229Z,4.75
2023-03-29T07:31:10.137Z,4.42
2023-03-29T07:36:22.631Z,4.34
2023-03-29T07:41:28.902Z,4.38
2023-03-29T07:46:43.466Z,4.40
2023-03-29T07:51:49.473Z,4.30
2023-03-29T07:56:54.714Z,4.19
2023-03-29T08:02:14.211Z,4.08
2023-03-29T08:07:25.791Z,3.68
2023-03-29T08:12:32.060Z,3.68
2023-03-29T08:17:42.130Z,3.83
2023-03-29T08:22:50.577Z,4.05
2023-03-29T08:28:11.975Z,4.11
2023-03-29T08:33:30.677Z,4.16
2023-03-29T08:39:12.796Z,4.02
2023-03-29T08:44:35.569Z,4.34
2023-03-29T08:50:01.440Z,4.38
2023-03-29T08:55:32.317Z,4.58
2023-03-29T09:00:59.270Z,4.46
2023-03-29T09:06:15.059Z,4.71
2023-03-29T09:11:42.042Z,4.90
2023-03-29T09:16:58.691Z,5.16
2023-03-29T09:22:19.586Z,4.93
2023-03-29T09:27:31.760Z,5.46
2023-03-29T09:32:55.718Z,5.68
2023-03-29T09:38:15.261Z,5.50
2023-03-29T09:43:33.376Z,5.43
2023-03-29T09:48:46.786Z,5.48
2023-03-29T09:53:56.494Z,5.69
2023-03-29T09:59:37.236Z,5.63
2023-03-29T10:04:46.257Z,5.53
2023-03-29T10:10:16.248Z,6.03
2023-03-29T10:15:30.054Z,6.06
2023-03-29T10:20:39.163Z,5.97
2023-03-29T10:25:47.146Z,6.07
2023-03-29T10:30:59.510Z,6.42
2023-03-29T10:36:09.846Z,6.27
2023-03-29T10:41:22.302Z,6.38
2023-03-29T10:46:36.933Z,6.31
2023-03-29T10:51:50.815Z,6.56
2023-03-29T10:57:01.057Z,6.37
2023-03-29T11:02:33.664Z,6.37
2023-03-29T11:07:45.619Z,6.23
2023-03-29T11:12:59.874Z,6.13
2023-03-29T11:18:25.617Z,6.36
2023-03-29T11:23:45.055Z,6.73
2023-03-29T11:28:59.554Z,6.60
2023-03-29T11:34:18.399Z,6.98
2023-03-29T11:39:31.649Z,7.15
2023-03-29T11:44:47.025Z,6.91
2023-03-29T11:49:57.834Z,7.72
2023-03-29T11:55:10.227Z,7.79
2023-03-29T12:00:26.853Z,7.66
2023-03-29T12:05:37.694Z,7.59
2023-03-29T12:10:51.691Z,7.61
2023-03-29T12:16:10.764Z,7.70
2023-03-29T12:21:23.048Z,8.32
2023-03-29T12:26:44.940Z,7.92
2023-03-29T12:32:04.365Z,8.12
2023-03-29T12:37:32.664Z,8.58
2023-03-29T12:43:01.442Z,8.63
2023-03-29T12:48:43.336Z,8.00
2023-03-29T12:53:58.004Z,8.40
2023-03-29T12:59:30.552Z,8.54
2023-03-29T13:04:55.787Z,8.53
2023-03-29T13:10:10.871Z,8.94
2023-03-29T13:15:28.853Z,8.55
2023-03-29T13:20:49.094Z,9.06
2023-03-29T13:26:09.788Z,9.21
2023-03-29T13:31:28.494Z,8.87
2023-03-29T13:36:49.413Z,9.15
2023-03-29T13:41:57.534Z,9.36
2023-03-29T13:47:16.650Z,9.43
2023-03-29T13:52:30.929Z,9.09
2023-03-29T13:57:40.422Z,9.23
2023-03-29T14:02:50.418Z,9.89
2023-03-29T14:08:02.717Z,9.59
2023-03-29T14:13:08.310Z,9.90
2023-03-29T14:18:14.932Z,9.70
2023-03-29T14:23:25.708Z,9.83
2023-03-29T14:28:33.604Z,9.79
2023-03-29T14:33:38.927Z,9.82
2023-03-29T14:38:50.056Z,10.10
2023-03-29T14:43:58.559Z,10.16
2023-03-29T14:49:06.809Z,10.15
2023-03-29T14:54:22.564Z,10.17
2023-03-29T14:59:31.410Z,10.02
2023-03-29T15:04:37.632Z,9.88
2023-03-29T15:09:51.253Z,10.01
2023-03-29T15:14:57.541Z,9.96
2023-03-29T15:20:13.554Z,9.90
2023-03-29T15:25:23.208Z,9.85
2023-03-29T15:30:36.091Z,9.90
2023-03-29T15:35:43.142Z,9.87
2023-03-29T15:40:51.388Z,9.69
2023-03-29T15:45:56.730Z,9.63
2023-03-29T15:51:06.181Z,10.01
2023-03-29T15:56:23.245Z,9.84
2023-03-29T16:01:40.899Z,9.73
2023-03-29T16:06:48.797Z,9.55
2023-03-29T16:11:56.684Z,9.59
2023-03-29T16:17:05.119Z,9.56
2023-03-29T16:22:10.519Z,9.44
2023-03-29T16:27:18.180Z,9.49
2023-03-29T16:32:23.629Z,9.01
2023-03-29T16:37:28.714Z,9.12
2023-03-29T16:42:36.390Z,9.05
2023-03-29T16:47:44.494Z,8.92
2023-03-29T16:52:51.677Z,8.92
2023-03-29T16:57:59.322Z,8.76
2023-03-29T17:03:09.676Z,8.72
2023-03-29T17:08:15.611Z,8.75
2023-03-29T17:13:24.301Z,8.66
2023-03-29T17:18:35.394Z,8.73
2023-03-29T17:23:44.945Z,8.73
2023-03-29T17:28:54.001Z,8.40
2023-03-29T17:34:05.889Z,8.35
2023-03-29T17:39:11.272Z,8.27
2023-03-29T17:44:18.919Z,8.15
2023-03-29T17:49:24.251Z,8.21
2023-03-29T17:54:29.672Z,8.09
2023-03-29T17:59:38.154Z,7.94
2023-03-29T18:04:43.204Z,7.82
2023-03-29T18:09:48.296Z,8.00
2023-03-29T18:14:57.093Z,7.99
2023-03-29T18:20:02.080Z,7.96
2023-03-29T18:25:10.268Z,8.08
2023-03-29T18:30:19.568Z,8.15
2023-03-29T18:35:24.952Z,8.27
2023-03-29T18:40:31.344Z,8.23
2023-03-29T18:45:39.204Z,8.25
2023-03-29T18:50:46.736Z,8.38
2023-03-29T18:55:54.299Z,8.49
2023-03-29T19:01:07.139Z,8.46
2023-03-29T19:06:12.806Z,8.51
2023-03-29T19:11:20.210Z,8.55
2023-03-29T19:16:30.390Z,8.39
2023-03-29T19:21:35.682Z,8.38
2023-03-29T19:26:40.925Z,8.38
2023-03-29T19:31:48.947Z,8.36
2023-03-29T19:37:00.733Z,8.28
2023-03-29T19:42:06.954Z,8.25
2023-03-29T19:47:15.604Z,8.13
2023-03-29T19:52:24.155Z,7.85
2023-03-29T19:57:30.971Z,7.78
2023-03-29T20:02:39.085Z,7.66
2023-03-29T20:07:46.456Z,7.48
2023-03-29T20:12:51.673Z,7.54
2023-03-29T20:18:01.529Z,7.41
2023-03-29T20:23:06.819Z,7.30
2023-03-29T20:28:13.061Z,7.29
2023-03-29T20:33:23.384Z,7.27
2023-03-29T20:38:28.578Z,7.17
2023-03-29T20:43:37.931Z,7.28
2023-03-29T20:48:53.548Z,7.43
2023-03-29T20:54:02.726Z,7.30
2023-03-29T20:59:10.918Z,7.41
2023-03-29T21:04:21.331Z,7.50
2023-03-29T21:09:27.343Z,7.38
2023-03-29T21:14:34.850Z,7.31
2023-03-29T21:19:43.323Z,7.26
2023-03-29T21:24:50.728Z,7.39
2023-03-29T21:29:55.856Z,7.43
2023-03-29T21:35:04.393Z,7.47
2023-03-29T21:40:12.525Z,7.38
2023-03-29T21:45:19.926Z,7.49
2023-03-29T21:50:28.087Z,7.58
2023-03-29T21:55:33.129Z,7.54
2023-03-29T22:00:40.301Z,7.44
2023-03-29T22:05:58.347Z,7.35
2023-03-29T22:11:11.290Z,7.37
2023-03-29T22:16:19.498Z,7.30
2023-03-29T22:21:28.779Z,7.37
2023-03-29T22:26:35.361Z,7.25
2023-03-29T22:31:40.590Z,7.16
2023-03-29T22:36:48.511Z,7.06
2023-03-29T22:41:53.480Z,7.08
2023-03-29T22:46:58.669Z,7.04
2023-03-29T22:52:06.969Z,7.22
2023-03-29T22:57:12.032Z,6.93
2023-03-29T23:02:17.364Z,7.03
2023-03-29T23:07:24.986Z,7.01
2023-03-29T23:12:30.407Z,6.90
2023-03-29T23:17:35.659Z,6.95
2023-03-29T23:22:43.342Z,7.04
2023-03-29T23:27:48.323Z,7.19
2023-03-29T23:32:53.688Z,7.22
2023-03-29T23:38:01.774Z,7.13
2023-03-29T23:43:08.740Z,7.11
2023-03-29T23:48:13.770Z,7.12
2023-03-29T23:53:22.234Z,7.19
2023-03-29T23:58:29.949Z,7.07
